createdAt,value
2023-03-17T00:00:13.028Z,1004.6
2023-03-17T00:06:33.015Z,1004.6
2023-03-17T00:12:55.996Z,1004.56
2023-03-17T00:19:16.030Z,1004.58
2023-03-17T00:25:38.998Z,1004.52
2023-03-17T00:31:59.015Z,1004.5
2023-03-17T00:38:22.013Z,1004.5
2023-03-17T00:44:42.052Z,1004.54
2023-03-17T00:51:04.975Z,1004.6
2023-03-17T00:57:25.015Z,1004.68
2023-03-17T01:03:48.002Z,1004.78
2023-03-17T01:10:08.059Z,1004.86
2023-03-17T01:16:31.070Z,1004.82
2023-03-17T01:22:51.009Z,1004.72
2023-03-17T01:29:13.997Z,1004.7
2023-03-17T01:35:34.074Z,1004.66
2023-03-17T01:41:57.010Z,1004.62
2023-03-17T01:48:16.995Z,1004.58
2023-03-17T01:54:40.077Z,1004.39
2023-03-17T02:01:00.082Z,1004.25
2023-03-17T02:07:22.967Z,1004.21
2023-03-17T02:13:43.093Z,1004.13
2023-03-17T02:20:05.980Z,1004.01
2023-03-17T02:26:26.070Z,1003.96
2023-03-17T02:32:49.050Z,1003.88
2023-03-17T02:39:09.054Z,1003.88
2023-03-17T02:45:32.024Z,1003.78
2023-03-17T02:51:52.046Z,1003.76
2023-03-17T02:58:15.004Z,1003.8
2023-03-17T03:04:34.992Z,1003.84
2023-03-17T03:10:58.047Z,1003.82
2023-03-17T03:17:18.029Z,1003.84
2023-03-17T03:23:40.990Z,1003.88
2023-03-17T03:30:01.041Z,1003.84
2023-03-17T03:36:24.003Z,1003.9
2023-03-17T03:42:43.994Z,1003.96
2023-03-17T03:49:07.030Z,1004.01
2023-03-17T03:55:28.046Z,1004
2023-03-17T04:01:50.989Z,1003.96
2023-03-17T04:08:11.042Z,1003.96
2023-03-17T04:14:34.134Z,1003.92
2023-03-17T04:38:35.026Z,1003.86
2023-03-17T04:44:55.010Z,1003.9
2023-03-17T04:51:17.978Z,1003.94
2023-03-17T04:57:38.095Z,1003.92
2023-03-17T05:04:00.976Z,1003.86
2023-03-17T05:10:20.988Z,1003.78
2023-03-17T05:16:44.029Z,1003.76
2023-03-17T05:23:03.974Z,1003.74
2023-03-17T05:29:27.026Z,1003.72
2023-03-17T05:35:47.035Z,1003.76
2023-03-17T05:42:09.997Z,1003.78
2023-03-17T05:48:30.017Z,1003.84
2023-03-17T05:54:53.016Z,1003.8
2023-03-17T06:01:13.053Z,1003.72
2023-03-17T06:07:50.412Z,1003.6
2023-03-17T06:13:56.256Z,1003.6
2023-03-17T06:20:19.032Z,1003.62
2023-03-17T06:26:39.004Z,1003.68
2023-03-17T06:33:02.187Z,1003.74
2023-03-17T06:39:21.992Z,1003.74
2023-03-17T06:45:45.018Z,1003.7
2023-03-17T06:52:05.031Z,1003.66
2023-03-17T06:58:27.986Z,1003.6
2023-03-17T07:04:48.008Z,1003.56
2023-03-17T07:11:11.044Z,1003.58
2023-03-17T07:17:31.026Z,1003.6
2023-03-17T07:23:54.157Z,1003.66
2023-03-17T07:30:14.005Z,1003.66
2023-03-17T07:36:36.998Z,1003.6
2023-03-17T07:42:56.991Z,1003.56
2023-03-17T07:49:30.728Z,1003.51
2023-03-17T07:55:40.102Z,1003.45
2023-03-17T08:02:03.068Z,1003.45
2023-03-17T08:08:23.026Z,1003.41
2023-03-17T08:14:45.997Z,1003.39
2023-03-17T08:21:06.002Z,1003.33
2023-03-17T08:27:29.023Z,1003.33
2023-03-17T08:33:49.013Z,1003.31
2023-03-17T08:40:12.002Z,1003.29
2023-03-17T08:46:32.106Z,1003.31
2023-03-17T08:52:54.991Z,1003.31
2023-03-17T08:59:16.885Z,1003.21
2023-03-17T09:05:38.606Z,1003.17
2023-03-17T09:11:57.993Z,1003.09
2023-03-17T09:18:22.156Z,1003.11
2023-03-17T09:24:41.024Z,1003.13
2023-03-17T09:48:22.996Z,1003.35
2023-03-17T09:54:45.985Z,1003.27
2023-03-17T10:01:06.003Z,1003.23
2023-03-17T10:07:29.003Z,1003.17
2023-03-17T10:13:48.987Z,1003.19
2023-03-17T10:20:11.996Z,1003.23
2023-03-17T10:26:32.042Z,1003.21
2023-03-17T10:32:55.042Z,1003.15
2023-03-17T10:39:14.992Z,1003.13
2023-03-17T10:45:40.104Z,1003.13
2023-03-17T10:51:57.986Z,1003.15
2023-03-17T10:58:20.982Z,1003.07
2023-03-17T11:04:41.017Z,1002.96
2023-03-17T11:11:03.992Z,1002.81
2023-03-17T11:17:24.986Z,1002.74
2023-03-17T11:23:48.023Z,1002.64
2023-03-17T11:30:07.998Z,1002.68
2023-03-17T11:36:30.995Z,1002.6
2023-03-17T11:42:51.016Z,1002.54
2023-03-17T11:49:13.993Z,1002.44
2023-03-17T11:55:34.026Z,1002.34
2023-03-17T12:01:57.020Z,1002.34
2023-03-17T12:08:16.991Z,1002.34
2023-03-17T12:14:39.998Z,1002.4
2023-03-17T12:21:00.007Z,1002.4
2023-03-17T12:27:23.001Z,1002.4
2023-03-17T12:33:42.998Z,1002.44
2023-03-17T12:40:06.024Z,1002.32
2023-03-17T12:46:26.052Z,1002.27
2023-03-17T12:52:48.977Z,1002.21
2023-03-17T12:59:09.114Z,1002.15
2023-03-17T13:05:32.319Z,1002.03
2023-03-17T13:11:52.002Z,1001.93
2023-03-17T13:18:15.022Z,1001.82
2023-03-17T13:24:35.006Z,1001.8
2023-03-17T13:30:58.042Z,1001.82
2023-03-17T13:37:18.003Z,1001.74
2023-03-17T13:43:43.403Z,1001.76
2023-03-17T13:50:00.981Z,1001.74
2023-03-17T13:56:24.315Z,1001.76
2023-03-17T14:02:43.986Z,1001.76
2023-03-17T14:09:07.042Z,1001.76
2023-03-17T14:15:28.394Z,1001.76
2023-03-17T14:21:51.070Z,1001.74
2023-03-17T14:28:11.461Z,1001.7
2023-03-17T14:34:34.042Z,1001.76
2023-03-17T14:40:53.980Z,1001.78
2023-03-17T14:47:17.014Z,1001.82
2023-03-17T14:53:37.007Z,1001.8
2023-03-17T14:59:59.990Z,1001.78
2023-03-17T15:06:19.994Z,1001.74
2023-03-17T15:12:43.010Z,1001.8
2023-03-17T15:35:49.549Z,1001.97
2023-03-17T15:42:08.980Z,1002.05
2023-03-17T15:48:32.001Z,1001.99
2023-03-17T15:54:52.018Z,1001.93
2023-03-17T16:01:15.007Z,1001.87
2023-03-17T16:07:35.195Z,1001.64
2023-03-17T16:13:58.038Z,1001.33
2023-03-17T16:20:18.014Z,1001.52
2023-03-17T16:26:40.989Z,1001.58
2023-03-17T16:33:01.027Z,1001.85
2023-03-17T16:39:24.013Z,1001.97
2023-03-17T16:45:43.979Z,1001.95
2023-03-17T16:52:07.036Z,1001.85
2023-03-17T16:58:26.978Z,1001.8
2023-03-17T17:04:50.312Z,1001.78
2023-03-17T17:11:10.019Z,1001.83
2023-03-17T17:17:32.980Z,1001.91
2023-03-17T17:23:53.368Z,1001.91
2023-03-17T17:30:16.020Z,1002.03
2023-03-17T17:36:35.999Z,1001.99
2023-03-17T17:42:59.002Z,1002.01
2023-03-17T17:49:19.025Z,1002.01
2023-03-17T17:55:42.029Z,1002.09
2023-03-17T18:02:02.110Z,1001.99
2023-03-17T18:08:25.024Z,1002.15
2023-03-17T18:14:45.004Z,1002.29
2023-03-17T18:21:07.980Z,1002.32
2023-03-17T18:27:28.016Z,1002.48
2023-03-17T18:33:51.299Z,1002.68
2023-03-17T18:40:15.331Z,1002.77
2023-03-17T18:46:34.117Z,1002.96
2023-03-17T18:52:54.056Z,1002.83
2023-03-17T18:59:16.983Z,1002.81
2023-03-17T19:05:37.172Z,1002.92
2023-03-17T19:12:00.027Z,1002.92
2023-03-17T19:18:20.001Z,1002.81
2023-03-17T19:24:43.051Z,1002.79
2023-03-17T19:31:03.073Z,1002.74
2023-03-17T19:37:26.055Z,1002.77
2023-03-17T19:43:46.022Z,1002.79
2023-03-17T19:50:08.990Z,1002.79
2023-03-17T19:56:29.007Z,1002.83
2023-03-17T20:02:52.014Z,1002.92
2023-03-17T20:09:11.991Z,1002.96
2023-03-17T20:15:35.053Z,1002.94
2023-03-17T20:21:54.997Z,1003.02
2023-03-17T20:28:18.002Z,1003.07
2023-03-17T20:45:25.976Z,1003.39
2023-03-17T20:51:48.986Z,1003.45
2023-03-17T20:58:08.978Z,1003.53
2023-03-17T21:04:32.032Z,1003.56
2023-03-17T21:10:51.979Z,1003.54
2023-03-17T21:17:15.024Z,1003.49
2023-03-17T21:23:35.020Z,1003.45
2023-03-17T21:29:58.043Z,1003.41
2023-03-17T21:36:17.980Z,1003.47
2023-03-17T21:42:41.016Z,1003.45
2023-03-17T21:49:01.025Z,1003.45
2023-03-17T21:55:23.994Z,1003.47
2023-03-17T22:01:44.105Z,1003.45
2023-03-17T22:08:06.982Z,1003.54
2023-03-17T22:14:26.983Z,1003.58
2023-03-17T22:20:50.045Z,1003.6
2023-03-17T22:27:09.994Z,1003.58
2023-03-17T22:33:32.985Z,1003.58
2023-03-17T22:39:53.079Z,1003.53
2023-03-17T22:46:16.059Z,1003.51
2023-03-17T22:52:36.069Z,1003.49
2023-03-17T22:58:59.020Z,1003.54
2023-03-17T23:21:57.014Z,1003.56
2023-03-17T23:28:16.983Z,1003.58
2023-03-17T23:34:40.016Z,1003.6
2023-03-17T23:41:00.036Z,1003.66
2023-03-17T23:47:22.998Z,1003.76
2023-03-17T23:53:43.008Z,1003.76
